sensor_id;sensor_type;location;lat;lon;timestamp;P1;durP1;ratioP1;P2;durP2;ratioP2
18526;SDS011;9393;42.158;24.748;2022-07-17T00:00:52;7.38;;;4.03;;
18526;SDS011;9393;42.158;24.748;2022-07-17T00:03:57;4.20;;;3.80;;
18526;SDS011;9393;42.158;24.748;2022-07-17T00:07:01;6.03;;;4.07;;
18526;SDS011;9393;42.158;24.748;2022-07-17T00:10:04;7.45;;;4.65;;
18526;SDS011;9393;42.158;24.748;2022-07-17T00:13:09;6.82;;;4.55;;
18526;SDS011;9393;42.158;24.748;2022-07-17T00:16:13;5.35;;;4.50;;
18526;SDS011;9393;42.158;24.748;2022-07-17T00:19:19;6.25;;;4.88;;
18526;SDS011;9393;42.158;24.748;2022-07-17T00:22:22;7.20;;;4.70;;
18526;SDS011;9393;42.158;24.748;2022-07-17T00:25:27;6.10;;;4.00;;
18526;SDS011;9393;42.158;24.748;2022-07-17T00:28:30;7.15;;;4.05;;
18526;SDS011;9393;42.158;24.748;2022-07-17T00:31:34;5.47;;;3.85;;
18526;SDS011;9393;42.158;24.748;2022-07-17T00:34:39;6.38;;;3.97;;
18526;SDS011;9393;42.158;24.748;2022-07-17T00:37:43;7.85;;;4.35;;
18526;SDS011;9393;42.158;24.748;2022-07-17T00:40:49;5.13;;;4.38;;
18526;SDS011;9393;42.158;24.748;2022-07-17T00:43:52;9.10;;;4.25;;
18526;SDS011;9393;42.158;24.748;2022-07-17T00:46:56;5.82;;;4.22;;
18526;SDS011;9393;42.158;24.748;2022-07-17T00:50:01;5.00;;;4.47;;
18526;SDS011;9393;42.158;24.748;2022-07-17T00:53:05;5.00;;;4.50;;
18526;SDS011;9393;42.158;24.748;2022-07-17T00:56:09;4.30;;;3.92;;
18526;SDS011;9393;42.158;24.748;2022-07-17T00:59:14;4.32;;;3.97;;
18526;SDS011;9393;42.158;24.748;2022-07-17T01:02:18;4.45;;;4.10;;
18526;SDS011;9393;42.158;24.748;2022-07-17T01:05:24;4.88;;;4.38;;
18526;SDS011;9393;42.158;24.748;2022-07-17T01:08:27;4.28;;;3.88;;
18526;SDS011;9393;42.158;24.748;2022-07-17T01:11:31;4.78;;;4.28;;
18526;SDS011;9393;42.158;24.748;2022-07-17T01:14:36;5.80;;;4.25;;
18526;SDS011;9393;42.158;24.748;2022-07-17T01:17:39;4.78;;;4.38;;
18526;SDS011;9393;42.158;24.748;2022-07-17T01:20:45;9.30;;;4.10;;
18526;SDS011;9393;42.158;24.748;2022-07-17T01:23:51;5.05;;;4.63;;
18526;SDS011;9393;42.158;24.748;2022-07-17T01:26:55;5.70;;;4.57;;
18526;SDS011;9393;42.158;24.748;2022-07-17T01:29:58;6.18;;;5.45;;
18526;SDS011;9393;42.158;24.748;2022-07-17T01:33:01;6.07;;;5.47;;
18526;SDS011;9393;42.158;24.748;2022-07-17T01:36:05;6.85;;;5.28;;
18526;SDS011;9393;42.158;24.748;2022-07-17T01:39:10;8.63;;;5.30;;
18526;SDS011;9393;42.158;24.748;2022-07-17T01:42:13;7.05;;;5.53;;
18526;SDS011;9393;42.158;24.748;2022-07-17T01:45:17;6.53;;;5.38;;
18526;SDS011;9393;42.158;24.748;2022-07-17T01:48:25;7.20;;;5.30;;
18526;SDS011;9393;42.158;24.748;2022-07-17T01:51:31;6.65;;;5.88;;
18526;SDS011;9393;42.158;24.748;2022-07-17T01:54:36;10.05;;;6.28;;
18526;SDS011;9393;42.158;24.748;2022-07-17T01:57:40;7.72;;;5.47;;
18526;SDS011;9393;42.158;24.748;2022-07-17T02:00:43;8.70;;;5.30;;
18526;SDS011;9393;42.158;24.748;2022-07-17T02:03:47;7.22;;;5.75;;
18526;SDS011;9393;42.158;24.748;2022-07-17T02:06:52;8.85;;;5.68;;
18526;SDS011;9393;42.158;24.748;2022-07-17T02:09:57;8.50;;;5.57;;
18526;SDS011;9393;42.158;24.748;2022-07-17T02:13:01;12.98;;;6.35;;
18526;SDS011;9393;42.158;24.748;2022-07-17T02:16:05;6.20;;;5.60;;
18526;SDS011;9393;42.158;24.748;2022-07-17T02:19:08;6.15;;;5.35;;
18526;SDS011;9393;42.158;24.748;2022-07-17T02:22:12;7.35;;;6.32;;
18526;SDS011;9393;42.158;24.748;2022-07-17T02:25:17;10.77;;;5.80;;
18526;SDS011;9393;42.158;24.748;2022-07-17T02:28:20;6.28;;;5.68;;
18526;SDS011;9393;42.158;24.748;2022-07-17T02:31:24;5.47;;;4.97;;
18526;SDS011;9393;42.158;24.748;2022-07-17T02:34:28;6.82;;;5.40;;
18526;SDS011;9393;42.158;24.748;2022-07-17T02:37:33;8.55;;;5.35;;
18526;SDS011;9393;42.158;24.748;2022-07-17T02:40:37;6.72;;;5.50;;
18526;SDS011;9393;42.158;24.748;2022-07-17T02:43:40;7.53;;;5.20;;
18526;SDS011;9393;42.158;24.748;2022-07-17T02:46:44;6.05;;;5.10;;
18526;SDS011;9393;42.158;24.748;2022-07-17T02:49:48;5.70;;;5.20;;
18526;SDS011;9393;42.158;24.748;2022-07-17T02:52:51;6.07;;;5.47;;
18526;SDS011;9393;42.158;24.748;2022-07-17T02:55:56;5.53;;;5.00;;
18526;SDS011;9393;42.158;24.748;2022-07-17T02:59:00;6.60;;;4.78;;
18526;SDS011;9393;42.158;24.748;2022-07-17T03:02:03;5.55;;;4.75;;
18526;SDS011;9393;42.158;24.748;2022-07-17T03:05:07;8.00;;;5.10;;
18526;SDS011;9393;42.158;24.748;2022-07-17T03:08:11;7.05;;;5.45;;
18526;SDS011;9393;42.158;24.748;2022-07-17T03:11:16;10.32;;;5.80;;
18526;SDS011;9393;42.158;24.748;2022-07-17T03:14:19;5.97;;;5.40;;
18526;SDS011;9393;42.158;24.748;2022-07-17T03:17:23;7.72;;;5.60;;
18526;SDS011;9393;42.158;24.748;2022-07-17T03:20:26;8.20;;;5.60;;
18526;SDS011;9393;42.158;24.748;2022-07-17T03:23:30;7.47;;;5.45;;
18526;SDS011;9393;42.158;24.748;2022-07-17T03:26:35;8.25;;;5.82;;
18526;SDS011;9393;42.158;24.748;2022-07-17T03:29:39;10.25;;;5.57;;
18526;SDS011;9393;42.158;24.748;2022-07-17T03:32:42;8.27;;;5.75;;
18526;SDS011;9393;42.158;24.748;2022-07-17T03:35:45;9.07;;;4.75;;
18526;SDS011;9393;42.158;24.748;2022-07-17T03:38:49;6.57;;;5.07;;
18526;SDS011;9393;42.158;24.748;2022-07-17T03:41:53;7.25;;;5.55;;
18526;SDS011;9393;42.158;24.748;2022-07-17T03:44:57;5.95;;;5.03;;
18526;SDS011;9393;42.158;24.748;2022-07-17T03:48:00;5.95;;;4.40;;
18526;SDS011;9393;42.158;24.748;2022-07-17T03:51:04;4.30;;;3.90;;
18526;SDS011;9393;42.158;24.748;2022-07-17T03:54:07;6.00;;;3.75;;
18526;SDS011;9393;42.158;24.748;2022-07-17T03:57:12;6.03;;;4.55;;
18526;SDS011;9393;42.158;24.748;2022-07-17T04:00:16;5.43;;;4.10;;
18526;SDS011;9393;42.158;24.748;2022-07-17T04:03:20;11.23;;;5.00;;
18526;SDS011;9393;42.158;24.748;2022-07-17T04:06:24;8.80;;;4.28;;
18526;SDS011;9393;42.158;24.748;2022-07-17T04:09:27;9.35;;;5.00;;
18526;SDS011;9393;42.158;24.748;2022-07-17T04:12:32;6.75;;;4.63;;
18526;SDS011;9393;42.158;24.748;2022-07-17T04:15:37;6.75;;;4.50;;
18526;SDS011;9393;42.158;24.748;2022-07-17T04:18:54;7.47;;;4.85;;
18526;SDS011;9393;42.158;24.748;2022-07-17T04:21:57;9.18;;;4.90;;
18526;SDS011;9393;42.158;24.748;2022-07-17T04:25:00;5.15;;;4.60;;
18526;SDS011;9393;42.158;24.748;2022-07-17T04:28:05;10.13;;;4.93;;
18526;SDS011;9393;42.158;24.748;2022-07-17T04:31:09;6.95;;;4.05;;
18526;SDS011;9393;42.158;24.748;2022-07-17T04:34:12;14.77;;;4.47;;
18526;SDS011;9393;42.158;24.748;2022-07-17T04:37:15;6.90;;;4.18;;
18526;SDS011;9393;42.158;24.748;2022-07-17T04:40:19;6.30;;;4.20;;
18526;SDS011;9393;42.158;24.748;2022-07-17T04:43:24;6.25;;;3.88;;
18526;SDS011;9393;42.158;24.748;2022-07-17T04:46:27;4.22;;;3.83;;
18526;SDS011;9393;42.158;24.748;2022-07-17T04:49:31;8.38;;;4.18;;
18526;SDS011;9393;42.158;24.748;2022-07-17T04:52:34;4.47;;;3.72;;
18526;SDS011;9393;42.158;24.748;2022-07-17T04:55:38;5.35;;;3.70;;
18526;SDS011;9393;42.158;24.748;2022-07-17T04:58:43;5.25;;;3.30;;
18526;SDS011;9393;42.158;24.748;2022-07-17T05:01:46;6.45;;;3.50;;
18526;SDS011;9393;42.158;24.748;2022-07-17T05:04:50;5.03;;;3.53;;
18526;SDS011;9393;42.158;24.748;2022-07-17T05:07:53;4.55;;;3.05;;
18526;SDS011;9393;42.158;24.748;2022-07-17T05:10:56;6.35;;;3.28;;
18526;SDS011;9393;42.158;24.748;2022-07-17T05:14:01;10.13;;;3.20;;
18526;SDS011;9393;42.158;24.748;2022-07-17T05:17:05;5.72;;;3.35;;
18526;SDS011;9393;42.158;24.748;2022-07-17T05:20:09;4.10;;;3.38;;
18526;SDS011;9393;42.158;24.748;2022-07-17T05:23:13;6.20;;;3.38;;
18526;SDS011;9393;42.158;24.748;2022-07-17T05:26:16;5.07;;;3.28;;
18526;SDS011;9393;42.158;24.748;2022-07-17T05:29:21;4.57;;;3.15;;
18526;SDS011;9393;42.158;24.748;2022-07-17T05:32:24;4.50;;;2.88;;
18526;SDS011;9393;42.158;24.748;2022-07-17T05:35:28;8.13;;;3.50;;
18526;SDS011;9393;42.158;24.748;2022-07-17T05:38:32;6.03;;;3.17;;
18526;SDS011;9393;42.158;24.748;2022-07-17T05:41:35;4.55;;;3.40;;
18526;SDS011;9393;42.158;24.748;2022-07-17T05:44:40;6.20;;;3.17;;
18526;SDS011;9393;42.158;24.748;2022-07-17T05:47:43;4.55;;;3.15;;
18526;SDS011;9393;42.158;24.748;2022-07-17T05:50:47;3.30;;;2.80;;
18526;SDS011;9393;42.158;24.748;2022-07-17T05:53:50;4.20;;;3.08;;
18526;SDS011;9393;42.158;24.748;2022-07-17T05:56:54;3.42;;;2.80;;
18526;SDS011;9393;42.158;24.748;2022-07-17T05:59:58;4.68;;;3.28;;
18526;SDS011;9393;42.158;24.748;2022-07-17T06:03:12;4.03;;;3.00;;
18526;SDS011;9393;42.158;24.748;2022-07-17T06:06:15;4.57;;;3.08;;
18526;SDS011;9393;42.158;24.748;2022-07-17T06:09:19;5.25;;;3.05;;
18526;SDS011;9393;42.158;24.748;2022-07-17T06:12:22;4.47;;;2.88;;
18526;SDS011;9393;42.158;24.748;2022-07-17T06:15:27;3.97;;;2.70;;
18526;SDS011;9393;42.158;24.748;2022-07-17T06:18:30;3.40;;;2.50;;
18526;SDS011;9393;42.158;24.748;2022-07-17T06:21:34;3.45;;;2.75;;
18526;SDS011;9393;42.158;24.748;2022-07-17T06:24:38;4.00;;;2.50;;
18526;SDS011;9393;42.158;24.748;2022-07-17T06:27:41;3.08;;;2.65;;
18526;SDS011;9393;42.158;24.748;2022-07-17T06:30:46;4.63;;;2.55;;
18526;SDS011;9393;42.158;24.748;2022-07-17T06:33:50;4.05;;;2.45;;
18526;SDS011;9393;42.158;24.748;2022-07-17T06:36:53;7.28;;;2.35;;
18526;SDS011;9393;42.158;24.748;2022-07-17T06:39:57;5.00;;;2.78;;
18526;SDS011;9393;42.158;24.748;2022-07-17T06:43:00;3.28;;;2.40;;
18526;SDS011;9393;42.158;24.748;2022-07-17T06:46:05;4.90;;;2.42;;
18526;SDS011;9393;42.158;24.748;2022-07-17T06:49:08;4.43;;;2.35;;
18526;SDS011;9393;42.158;24.748;2022-07-17T06:52:11;4.05;;;2.50;;
18526;SDS011;9393;42.158;24.748;2022-07-17T06:55:15;6.40;;;2.10;;
18526;SDS011;9393;42.158;24.748;2022-07-17T06:58:18;4.95;;;2.40;;
18526;SDS011;9393;42.158;24.748;2022-07-17T07:01:23;3.80;;;2.25;;
18526;SDS011;9393;42.158;24.748;2022-07-17T07:04:27;6.00;;;2.58;;
18526;SDS011;9393;42.158;24.748;2022-07-17T07:07:30;5.10;;;2.58;;
18526;SDS011;9393;42.158;24.748;2022-07-17T07:10:33;7.07;;;2.65;;
18526;SDS011;9393;42.158;24.748;2022-07-17T07:13:37;7.78;;;2.40;;
18526;SDS011;9393;42.158;24.748;2022-07-17T07:16:42;6.38;;;2.30;;
18526;SDS011;9393;42.158;24.748;2022-07-17T07:19:45;4.53;;;2.40;;
18526;SDS011;9393;42.158;24.748;2022-07-17T07:22:49;5.60;;;2.40;;
18526;SDS011;9393;42.158;24.748;2022-07-17T07:25:52;5.53;;;2.50;;
18526;SDS011;9393;42.158;24.748;2022-07-17T07:28:55;4.30;;;2.10;;
18526;SDS011;9393;42.158;24.748;2022-07-17T07:32:00;4.28;;;2.40;;
18526;SDS011;9393;42.158;24.748;2022-07-17T07:35:04;4.38;;;2.50;;
18526;SDS011;9393;42.158;24.748;2022-07-17T07:38:07;5.40;;;2.85;;
18526;SDS011;9393;42.158;24.748;2022-07-17T07:41:11;6.43;;;2.58;;
18526;SDS011;9393;42.158;24.748;2022-07-17T07:44:15;4.72;;;2.50;;
18526;SDS011;9393;42.158;24.748;2022-07-17T07:47:33;5.15;;;2.30;;
18526;SDS011;9393;42.158;24.748;2022-07-17T07:50:43;3.45;;;2.22;;
18526;SDS011;9393;42.158;24.748;2022-07-17T07:53:47;6.63;;;2.63;;
18526;SDS011;9393;42.158;24.748;2022-07-17T07:56:50;10.40;;;2.30;;
18526;SDS011;9393;42.158;24.748;2022-07-17T07:59:55;3.53;;;1.90;;
18526;SDS011;9393;42.158;24.748;2022-07-17T08:03:00;3.65;;;2.35;;
18526;SDS011;9393;42.158;24.748;2022-07-17T08:06:04;5.20;;;2.40;;
18526;SDS011;9393;42.158;24.748;2022-07-17T08:09:07;5.82;;;2.67;;
18526;SDS011;9393;42.158;24.748;2022-07-17T08:12:11;5.50;;;2.88;;
18526;SDS011;9393;42.158;24.748;2022-07-17T08:15:35;5.60;;;2.67;;
18526;SDS011;9393;42.158;24.748;2022-07-17T08:18:39;4.93;;;2.50;;
18526;SDS011;9393;42.158;24.748;2022-07-17T08:21:43;2.67;;;1.98;;
18526;SDS011;9393;42.158;24.748;2022-07-17T08:24:46;3.47;;;2.15;;
18526;SDS011;9393;42.158;24.748;2022-07-17T08:27:49;4.28;;;2.20;;
18526;SDS011;9393;42.158;24.748;2022-07-17T08:30:53;4.97;;;2.22;;
18526;SDS011;9393;42.158;24.748;2022-07-17T08:33:58;6.13;;;2.70;;
18526;SDS011;9393;42.158;24.748;2022-07-17T08:37:01;3.65;;;2.30;;
18526;SDS011;9393;42.158;24.748;2022-07-17T08:40:05;3.03;;;1.83;;
18526;SDS011;9393;42.158;24.748;2022-07-17T08:43:09;8.35;;;1.92;;
18526;SDS011;9393;42.158;24.748;2022-07-17T08:46:12;6.53;;;2.45;;
18526;SDS011;9393;42.158;24.748;2022-07-17T08:49:19;7.30;;;1.80;;
18526;SDS011;9393;42.158;24.748;2022-07-17T08:52:23;7.78;;;2.05;;
18526;SDS011;9393;42.158;24.748;2022-07-17T08:55:27;2.90;;;2.15;;
18526;SDS011;9393;42.158;24.748;2022-07-17T08:58:30;5.50;;;2.13;;
18526;SDS011;9393;42.158;24.748;2022-07-17T09:01:34;4.18;;;2.30;;
18526;SDS011;9393;42.158;24.748;2022-07-17T09:04:40;4.35;;;2.35;;
18526;SDS011;9393;42.158;24.748;2022-07-17T09:07:47;7.32;;;2.40;;
18526;SDS011;9393;42.158;24.748;2022-07-17T09:10:51;4.35;;;2.22;;
18526;SDS011;9393;42.158;24.748;2022-07-17T09:13:55;5.25;;;2.35;;
18526;SDS011;9393;42.158;24.748;2022-07-17T09:16:59;3.78;;;2.20;;
18526;SDS011;9393;42.158;24.748;2022-07-17T09:20:12;3.88;;;2.35;;
18526;SDS011;9393;42.158;24.748;2022-07-17T09:23:16;4.65;;;2.22;;
18526;SDS011;9393;42.158;24.748;2022-07-17T09:26:20;3.08;;;2.08;;
18526;SDS011;9393;42.158;24.748;2022-07-17T09:29:23;9.45;;;2.47;;
18526;SDS011;9393;42.158;24.748;2022-07-17T09:32:28;3.70;;;2.50;;
18526;SDS011;9393;42.158;24.748;2022-07-17T09:35:34;3.70;;;2.03;;
18526;SDS011;9393;42.158;24.748;2022-07-17T09:38:38;4.03;;;2.38;;
18526;SDS011;9393;42.158;24.748;2022-07-17T09:41:43;5.38;;;2.03;;
18526;SDS011;9393;42.158;24.748;2022-07-17T09:44:53;2.42;;;2.08;;
18526;SDS011;9393;42.158;24.748;2022-07-17T09:47:57;3.35;;;1.90;;
18526;SDS011;9393;42.158;24.748;2022-07-17T09:51:03;2.28;;;1.85;;
18526;SDS011;9393;42.158;24.748;2022-07-17T09:54:08;2.63;;;1.90;;
18526;SDS011;9393;42.158;24.748;2022-07-17T09:57:13;2.40;;;2.10;;
18526;SDS011;9393;42.158;24.748;2022-07-17T10:00:17;3.35;;;1.92;;
18526;SDS011;9393;42.158;24.748;2022-07-17T10:03:24;2.83;;;2.40;;
18526;SDS011;9393;42.158;24.748;2022-07-17T10:06:30;3.42;;;2.28;;
18526;SDS011;9393;42.158;24.748;2022-07-17T10:09:34;5.50;;;2.20;;
18526;SDS011;9393;42.158;24.748;2022-07-17T10:12:39;4.13;;;2.10;;
18526;SDS011;9393;42.158;24.748;2022-07-17T10:15:45;7.43;;;2.03;;
18526;SDS011;9393;42.158;24.748;2022-07-17T10:18:49;4.45;;;2.08;;
18526;SDS011;9393;42.158;24.748;2022-07-17T10:21:58;3.47;;;2.00;;
18526;SDS011;9393;42.158;24.748;2022-07-17T10:25:03;2.17;;;1.95;;
18526;SDS011;9393;42.158;24.748;2022-07-17T10:28:07;3.25;;;2.38;;
18526;SDS011;9393;42.158;24.748;2022-07-17T10:31:21;2.97;;;1.90;;
18526;SDS011;9393;42.158;24.748;2022-07-17T10:34:43;5.82;;;2.40;;
18526;SDS011;9393;42.158;24.748;2022-07-17T10:37:49;2.60;;;2.00;;
18526;SDS011;9393;42.158;24.748;2022-07-17T10:40:58;4.90;;;2.33;;
18526;SDS011;9393;42.158;24.748;2022-07-17T10:44:03;2.65;;;2.10;;
18526;SDS011;9393;42.158;24.748;2022-07-17T10:47:06;3.53;;;1.95;;
18526;SDS011;9393;42.158;24.748;2022-07-17T10:50:10;3.00;;;1.95;;
18526;SDS011;9393;42.158;24.748;2022-07-17T10:53:16;4.57;;;2.00;;
18526;SDS011;9393;42.158;24.748;2022-07-17T10:56:25;4.35;;;1.85;;
18526;SDS011;9393;42.158;24.748;2022-07-17T10:59:30;2.20;;;1.77;;
18526;SDS011;9393;42.158;24.748;2022-07-17T11:02:35;5.55;;;2.10;;
18526;SDS011;9393;42.158;24.748;2022-07-17T11:05:38;2.40;;;2.20;;
18526;SDS011;9393;42.158;24.748;2022-07-17T11:08:47;2.55;;;1.90;;
18526;SDS011;9393;42.158;24.748;2022-07-17T11:11:51;2.20;;;1.92;;
18526;SDS011;9393;42.158;24.748;2022-07-17T11:14:58;5.25;;;2.08;;
18526;SDS011;9393;42.158;24.748;2022-07-17T11:18:02;3.38;;;1.88;;
18526;SDS011;9393;42.158;24.748;2022-07-17T11:21:06;3.17;;;1.95;;
18526;SDS011;9393;42.158;24.748;2022-07-17T11:24:11;2.90;;;2.00;;
18526;SDS011;9393;42.158;24.748;2022-07-17T11:27:18;4.03;;;2.08;;
18526;SDS011;9393;42.158;24.748;2022-07-17T11:30:24;3.03;;;1.92;;
18526;SDS011;9393;42.158;24.748;2022-07-17T11:33:31;2.60;;;2.03;;
18526;SDS011;9393;42.158;24.748;2022-07-17T11:36:36;5.15;;;1.83;;
18526;SDS011;9393;42.158;24.748;2022-07-17T11:39:42;2.00;;;1.65;;
18526;SDS011;9393;42.158;24.748;2022-07-17T11:42:48;4.70;;;1.80;;
18526;SDS011;9393;42.158;24.748;2022-07-17T11:46:02;3.67;;;1.95;;
18526;SDS011;9393;42.158;24.748;2022-07-17T11:49:06;3.47;;;1.80;;
18526;SDS011;9393;42.158;24.748;2022-07-17T11:52:10;4.72;;;2.17;;
18526;SDS011;9393;42.158;24.748;2022-07-17T11:55:16;2.15;;;2.03;;
18526;SDS011;9393;42.158;24.748;2022-07-17T11:58:19;2.65;;;1.83;;
18526;SDS011;9393;42.158;24.748;2022-07-17T12:01:23;4.45;;;1.95;;
18526;SDS011;9393;42.158;24.748;2022-07-17T12:04:26;3.47;;;1.83;;
18526;SDS011;9393;42.158;24.748;2022-07-17T12:07:38;3.90;;;2.00;;
18526;SDS011;9393;42.158;24.748;2022-07-17T12:10:45;2.05;;;1.85;;
18526;SDS011;9393;42.158;24.748;2022-07-17T12:13:49;2.33;;;2.05;;
18526;SDS011;9393;42.158;24.748;2022-07-17T12:16:55;4.05;;;1.83;;
18526;SDS011;9393;42.158;24.748;2022-07-17T12:20:03;2.65;;;1.90;;
18526;SDS011;9393;42.158;24.748;2022-07-17T12:23:08;2.58;;;2.20;;
18526;SDS011;9393;42.158;24.748;2022-07-17T12:26:13;3.22;;;2.10;;
18526;SDS011;9393;42.158;24.748;2022-07-17T12:29:19;6.15;;;2.00;;
18526;SDS011;9393;42.158;24.748;2022-07-17T12:32:23;5.20;;;2.35;;
18526;SDS011;9393;42.158;24.748;2022-07-17T12:35:26;2.13;;;1.90;;
18526;SDS011;9393;42.158;24.748;2022-07-17T12:38:29;4.60;;;2.10;;
18526;SDS011;9393;42.158;24.748;2022-07-17T12:41:34;2.40;;;2.17;;
18526;SDS011;9393;42.158;24.748;2022-07-17T12:44:38;4.15;;;2.08;;
18526;SDS011;9393;42.158;24.748;2022-07-17T12:47:41;5.20;;;2.22;;
18526;SDS011;9393;42.158;24.748;2022-07-17T12:50:44;4.32;;;2.00;;
18526;SDS011;9393;42.158;24.748;2022-07-17T12:53:48;12.30;;;2.38;;
18526;SDS011;9393;42.158;24.748;2022-07-17T12:56:53;2.85;;;2.10;;
18526;SDS011;9393;42.158;24.748;2022-07-17T12:59:56;3.17;;;2.00;;
18526;SDS011;9393;42.158;24.748;2022-07-17T13:03:01;7.18;;;2.28;;
18526;SDS011;9393;42.158;24.748;2022-07-17T13:06:04;3.35;;;2.05;;
18526;SDS011;9393;42.158;24.748;2022-07-17T13:09:08;2.63;;;2.10;;
18526;SDS011;9393;42.158;24.748;2022-07-17T13:12:14;4.57;;;1.90;;
18526;SDS011;9393;42.158;24.748;2022-07-17T13:15:17;2.78;;;2.17;;
18526;SDS011;9393;42.158;24.748;2022-07-17T13:18:28;4.70;;;2.25;;
18526;SDS011;9393;42.158;24.748;2022-07-17T13:21:32;2.33;;;2.13;;
18526;SDS011;9393;42.158;24.748;2022-07-17T13:24:36;3.95;;;2.28;;
18526;SDS011;9393;42.158;24.748;2022-07-17T13:27:40;5.22;;;2.00;;
18526;SDS011;9393;42.158;24.748;2022-07-17T13:30:44;3.13;;;2.17;;
18526;SDS011;9393;42.158;24.748;2022-07-17T13:33:48;3.28;;;2.40;;
18526;SDS011;9393;42.158;24.748;2022-07-17T13:36:52;2.20;;;1.98;;
18526;SDS011;9393;42.158;24.748;2022-07-17T13:39:55;2.30;;;2.10;;
18526;SDS011;9393;42.158;24.748;2022-07-17T13:43:00;3.78;;;2.42;;
18526;SDS011;9393;42.158;24.748;2022-07-17T13:46:05;5.07;;;2.42;;
18526;SDS011;9393;42.158;24.748;2022-07-17T13:49:08;5.05;;;2.38;;
18526;SDS011;9393;42.158;24.748;2022-07-17T13:52:12;4.15;;;2.28;;
18526;SDS011;9393;42.158;24.748;2022-07-17T13:55:15;5.53;;;2.65;;
18526;SDS011;9393;42.158;24.748;2022-07-17T13:58:40;3.55;;;2.53;;
18526;SDS011;9393;42.158;24.748;2022-07-17T14:01:43;3.70;;;2.25;;
18526;SDS011;9393;42.158;24.748;2022-07-17T14:04:47;3.05;;;2.72;;
18526;SDS011;9393;42.158;24.748;2022-07-17T14:07:50;3.80;;;2.67;;
18526;SDS011;9393;42.158;24.748;2022-07-17T14:10:54;2.53;;;2.15;;
18526;SDS011;9393;42.158;24.748;2022-07-17T14:13:58;4.32;;;2.55;;
18526;SDS011;9393;42.158;24.748;2022-07-17T14:17:02;2.88;;;2.20;;
18526;SDS011;9393;42.158;24.748;2022-07-17T14:20:06;3.42;;;2.38;;
18526;SDS011;9393;42.158;24.748;2022-07-17T14:23:10;4.57;;;2.30;;
18526;SDS011;9393;42.158;24.748;2022-07-17T14:26:14;3.47;;;2.10;;
18526;SDS011;9393;42.158;24.748;2022-07-17T14:29:19;2.53;;;2.30;;
18526;SDS011;9393;42.158;24.748;2022-07-17T14:32:23;3.55;;;2.05;;
18526;SDS011;9393;42.158;24.748;2022-07-17T14:35:26;3.55;;;1.90;;
18526;SDS011;9393;42.158;24.748;2022-07-17T14:38:30;4.38;;;2.40;;
18526;SDS011;9393;42.158;24.748;2022-07-17T14:41:34;2.67;;;2.13;;
18526;SDS011;9393;42.158;24.748;2022-07-17T14:44:38;4.65;;;2.17;;
18526;SDS011;9393;42.158;24.748;2022-07-17T14:47:42;3.17;;;2.20;;
18526;SDS011;9393;42.158;24.748;2022-07-17T14:50:46;2.20;;;1.90;;
18526;SDS011;9393;42.158;24.748;2022-07-17T14:53:49;6.07;;;2.20;;
18526;SDS011;9393;42.158;24.748;2022-07-17T14:56:53;4.50;;;2.00;;
18526;SDS011;9393;42.158;24.748;2022-07-17T14:59:57;2.58;;;2.33;;
18526;SDS011;9393;42.158;24.748;2022-07-17T15:03:01;3.35;;;1.83;;
18526;SDS011;9393;42.158;24.748;2022-07-17T15:06:04;3.13;;;2.22;;
18526;SDS011;9393;42.158;24.748;2022-07-17T15:09:08;2.45;;;1.92;;
18526;SDS011;9393;42.158;24.748;2022-07-17T15:12:12;3.35;;;2.25;;
18526;SDS011;9393;42.158;24.748;2022-07-17T15:15:17;3.10;;;2.25;;
18526;SDS011;9393;42.158;24.748;2022-07-17T15:18:20;3.25;;;1.90;;
18526;SDS011;9393;42.158;24.748;2022-07-17T15:21:24;6.85;;;2.90;;
18526;SDS011;9393;42.158;24.748;2022-07-17T15:24:48;2.30;;;2.10;;
18526;SDS011;9393;42.158;24.748;2022-07-17T15:27:51;5.30;;;2.20;;
18526;SDS011;9393;42.158;24.748;2022-07-17T15:30:56;5.97;;;1.92;;
18526;SDS011;9393;42.158;24.748;2022-07-17T15:33:59;5.63;;;3.28;;
18526;SDS011;9393;42.158;24.748;2022-07-17T15:37:03;7.03;;;3.38;;
18526;SDS011;9393;42.158;24.748;2022-07-17T15:40:06;2.58;;;2.13;;
18526;SDS011;9393;42.158;24.748;2022-07-17T15:43:10;3.30;;;2.40;;
18526;SDS011;9393;42.158;24.748;2022-07-17T15:46:15;2.47;;;2.05;;
18526;SDS011;9393;42.158;24.748;2022-07-17T15:49:19;4.65;;;2.40;;
18526;SDS011;9393;42.158;24.748;2022-07-17T15:52:23;5.00;;;2.20;;
18526;SDS011;9393;42.158;24.748;2022-07-17T15:55:26;2.38;;;2.00;;
18526;SDS011;9393;42.158;24.748;2022-07-17T15:58:30;4.80;;;2.70;;
18526;SDS011;9393;42.158;24.748;2022-07-17T16:01:34;3.17;;;2.35;;
18526;SDS011;9393;42.158;24.748;2022-07-17T16:04:38;3.20;;;2.00;;
18526;SDS011;9393;42.158;24.748;2022-07-17T16:07:42;6.30;;;2.40;;
18526;SDS011;9393;42.158;24.748;2022-07-17T16:10:45;2.65;;;2.38;;
18526;SDS011;9393;42.158;24.748;2022-07-17T16:13:48;3.92;;;2.25;;
18526;SDS011;9393;42.158;24.748;2022-07-17T16:16:53;2.97;;;2.50;;
18526;SDS011;9393;42.158;24.748;2022-07-17T16:19:57;2.70;;;1.80;;
18526;SDS011;9393;42.158;24.748;2022-07-17T16:23:00;4.30;;;2.42;;
18526;SDS011;9393;42.158;24.748;2022-07-17T16:26:04;3.92;;;1.98;;
18526;SDS011;9393;42.158;24.748;2022-07-17T16:29:07;2.22;;;2.03;;
18526;SDS011;9393;42.158;24.748;2022-07-17T16:32:13;3.05;;;2.10;;
18526;SDS011;9393;42.158;24.748;2022-07-17T16:35:17;2.83;;;2.10;;
18526;SDS011;9393;42.158;24.748;2022-07-17T16:38:20;3.15;;;2.40;;
18526;SDS011;9393;42.158;24.748;2022-07-17T16:41:24;2.38;;;2.17;;
18526;SDS011;9393;42.158;24.748;2022-07-17T16:44:27;2.58;;;2.38;;
18526;SDS011;9393;42.158;24.748;2022-07-17T16:47:32;5.05;;;2.65;;
18526;SDS011;9393;42.158;24.748;2022-07-17T16:50:35;5.63;;;2.50;;
18526;SDS011;9393;42.158;24.748;2022-07-17T16:53:45;6.05;;;2.50;;
18526;SDS011;9393;42.158;24.748;2022-07-17T16:56:50;4.40;;;2.80;;
18526;SDS011;9393;42.158;24.748;2022-07-17T16:59:53;4.70;;;2.70;;
18526;SDS011;9393;42.158;24.748;2022-07-17T17:02:58;4.78;;;2.78;;
18526;SDS011;9393;42.158;24.748;2022-07-17T17:06:02;3.67;;;2.70;;
18526;SDS011;9393;42.158;24.748;2022-07-17T17:09:06;5.40;;;3.22;;
18526;SDS011;9393;42.158;24.748;2022-07-17T17:12:09;3.45;;;3.00;;
18526;SDS011;9393;42.158;24.748;2022-07-17T17:15:13;3.30;;;2.97;;
18526;SDS011;9393;42.158;24.748;2022-07-17T17:18:18;4.15;;;3.25;;
18526;SDS011;9393;42.158;24.748;2022-07-17T17:21:22;6.13;;;3.40;;
18526;SDS011;9393;42.158;24.748;2022-07-17T17:24:26;4.75;;;3.25;;
18526;SDS011;9393;42.158;24.748;2022-07-17T17:27:29;5.68;;;3.00;;
18526;SDS011;9393;42.158;24.748;2022-07-17T17:30:33;4.10;;;3.17;;
18526;SDS011;9393;42.158;24.748;2022-07-17T17:33:38;6.45;;;3.63;;
18526;SDS011;9393;42.158;24.748;2022-07-17T17:36:42;7.93;;;4.05;;
18526;SDS011;9393;42.158;24.748;2022-07-17T17:39:45;5.38;;;3.22;;
18526;SDS011;9393;42.158;24.748;2022-07-17T17:42:49;4.85;;;3.10;;
18526;SDS011;9393;42.158;24.748;2022-07-17T17:45:52;3.17;;;2.75;;
18526;SDS011;9393;42.158;24.748;2022-07-17T17:48:57;3.60;;;2.90;;
18526;SDS011;9393;42.158;24.748;2022-07-17T17:52:01;3.15;;;2.83;;
18526;SDS011;9393;42.158;24.748;2022-07-17T17:55:05;4.57;;;2.70;;
18526;SDS011;9393;42.158;24.748;2022-07-17T17:58:10;4.40;;;3.10;;
18526;SDS011;9393;42.158;24.748;2022-07-17T18:01:13;9.30;;;2.97;;
18526;SDS011;9393;42.158;24.748;2022-07-17T18:04:18;3.40;;;3.08;;
18526;SDS011;9393;42.158;24.748;2022-07-17T18:07:21;4.35;;;2.80;;
18526;SDS011;9393;42.158;24.748;2022-07-17T18:10:25;7.07;;;3.08;;
18526;SDS011;9393;42.158;24.748;2022-07-17T18:13:28;6.70;;;3.30;;
18526;SDS011;9393;42.158;24.748;2022-07-17T18:16:32;9.43;;;3.10;;
18526;SDS011;9393;42.158;24.748;2022-07-17T18:19:38;4.63;;;3.22;;
18526;SDS011;9393;42.158;24.748;2022-07-17T18:22:41;5.15;;;3.13;;
18526;SDS011;9393;42.158;24.748;2022-07-17T18:25:44;4.75;;;2.95;;
18526;SDS011;9393;42.158;24.748;2022-07-17T18:28:48;4.30;;;3.10;;
18526;SDS011;9393;42.158;24.748;2022-07-17T18:31:51;3.40;;;3.00;;